sensor_id;sensor_type;location;lat;lon;timestamp;P1;durP1;ratioP1;P2;durP2;ratioP2
24421;SDS011;12600;53.326;-6.298;2024-03-25T00:01:51;8.55;;;4.38;;
24421;SDS011;12600;53.326;-6.298;2024-03-25T00:04:41;8.27;;;3.60;;
24421;SDS011;12600;53.326;-6.298;2024-03-25T00:07:28;6.03;;;3.70;;
24421;SDS011;12600;53.326;-6.298;2024-03-25T00:10:17;8.77;;;4.10;;
24421;SDS011;12600;53.326;-6.298;2024-03-25T00:13:06;9.00;;;4.13;;
24421;SDS011;12600;53.326;-6.298;2024-03-25T00:15:54;11.77;;;4.10;;
24421;SDS011;12600;53.326;-6.298;2024-03-25T00:18:42;7.57;;;3.72;;
24421;SDS011;12600;53.326;-6.298;2024-03-25T00:21:31;5.57;;;2.95;;
24421;SDS011;12600;53.326;-6.298;2024-03-25T00:24:19;4.85;;;3.10;;
24421;SDS011;12600;53.326;-6.298;2024-03-25T00:27:07;12.07;;;5.55;;
24421;SDS011;12600;53.326;-6.298;2024-03-25T00:29:55;7.68;;;3.60;;
24421;SDS011;12600;53.326;-6.298;2024-03-25T00:32:43;13.90;;;7.30;;
24421;SDS011;12600;53.326;-6.298;2024-03-25T00:35:31;9.38;;;4.85;;
24421;SDS011;12600;53.326;-6.298;2024-03-25T00:38:20;7.05;;;3.92;;
24421;SDS011;12600;53.326;-6.298;2024-03-25T00:41:08;9.98;;;4.30;;
24421;SDS011;12600;53.326;-6.298;2024-03-25T00:43:56;8.38;;;4.20;;
24421;SDS011;12600;53.326;-6.298;2024-03-25T00:46:44;8.77;;;3.97;;
24421;SDS011;12600;53.326;-6.298;2024-03-25T00:49:31;10.32;;;4.85;;
24421;SDS011;12600;53.326;-6.298;2024-03-25T00:52:20;9.27;;;4.10;;
24421;SDS011;12600;53.326;-6.298;2024-03-25T00:55:09;8.50;;;3.40;;
24421;SDS011;12600;53.326;-6.298;2024-03-25T00:57:58;8.52;;;4.47;;
24421;SDS011;12600;53.326;-6.298;2024-03-25T01:00:45;12.15;;;4.45;;
24421;SDS011;12600;53.326;-6.298;2024-03-25T01:03:33;7.22;;;3.50;;
24421;SDS011;12600;53.326;-6.298;2024-03-25T01:06:21;6.63;;;3.60;;
24421;SDS011;12600;53.326;-6.298;2024-03-25T01:09:09;8.38;;;3.08;;
24421;SDS011;12600;53.326;-6.298;2024-03-25T01:11:58;7.22;;;2.90;;
24421;SDS011;12600;53.326;-6.298;2024-03-25T01:14:46;13.25;;;3.80;;
24421;SDS011;12600;53.326;-6.298;2024-03-25T01:17:33;7.00;;;2.90;;
24421;SDS011;12600;53.326;-6.298;2024-03-25T01:20:22;6.20;;;2.53;;
24421;SDS011;12600;53.326;-6.298;2024-03-25T01:23:09;4.70;;;2.20;;
24421;SDS011;12600;53.326;-6.298;2024-03-25T01:25:57;4.70;;;2.17;;
24421;SDS011;12600;53.326;-6.298;2024-03-25T01:28:46;5.10;;;2.50;;
24421;SDS011;12600;53.326;-6.298;2024-03-25T01:31:35;5.57;;;2.47;;
24421;SDS011;12600;53.326;-6.298;2024-03-25T01:34:22;7.68;;;2.80;;
24421;SDS011;12600;53.326;-6.298;2024-03-25T01:37:10;6.93;;;2.60;;
24421;SDS011;12600;53.326;-6.298;2024-03-25T01:39:58;4.88;;;2.13;;
24421;SDS011;12600;53.326;-6.298;2024-03-25T01:42:54;5.80;;;2.10;;
24421;SDS011;12600;53.326;-6.298;2024-03-25T01:45:44;3.53;;;1.60;;
24421;SDS011;12600;53.326;-6.298;2024-03-25T01:48:32;3.60;;;1.65;;
24421;SDS011;12600;53.326;-6.298;2024-03-25T01:51:20;5.15;;;1.70;;
24421;SDS011;12600;53.326;-6.298;2024-03-25T01:54:10;6.85;;;2.15;;
24421;SDS011;12600;53.326;-6.298;2024-03-25T01:57:00;4.28;;;1.85;;
24421;SDS011;12600;53.326;-6.298;2024-03-25T01:59:49;4.57;;;1.92;;
24421;SDS011;12600;53.326;-6.298;2024-03-25T02:02:38;5.78;;;2.30;;
24421;SDS011;12600;53.326;-6.298;2024-03-25T02:05:30;5.05;;;2.60;;
24421;SDS011;12600;53.326;-6.298;2024-03-25T02:08:17;3.42;;;1.75;;
24421;SDS011;12600;53.326;-6.298;2024-03-25T02:11:07;2.67;;;1.33;;
24421;SDS011;12600;53.326;-6.298;2024-03-25T02:13:54;2.85;;;1.40;;
24421;SDS011;12600;53.326;-6.298;2024-03-25T02:16:43;4.45;;;1.15;;
24421;SDS011;12600;53.326;-6.298;2024-03-25T02:19:32;3.47;;;1.30;;
24421;SDS011;12600;53.326;-6.298;2024-03-25T02:22:22;2.78;;;1.20;;
24421;SDS011;12600;53.326;-6.298;2024-03-25T02:25:10;2.45;;;1.08;;
24421;SDS011;12600;53.326;-6.298;2024-03-25T02:28:00;1.50;;;0.70;;
24421;SDS011;12600;53.326;-6.298;2024-03-25T02:30:47;1.90;;;1.00;;
24421;SDS011;12600;53.326;-6.298;2024-03-25T02:33:35;1.52;;;0.82;;
24421;SDS011;12600;53.326;-6.298;2024-03-25T02:36:23;1.80;;;0.90;;
24421;SDS011;12600;53.326;-6.298;2024-03-25T02:39:11;2.00;;;0.90;;
24421;SDS011;12600;53.326;-6.298;2024-03-25T02:41:59;2.85;;;1.00;;
24421;SDS011;12600;53.326;-6.298;2024-03-25T02:44:49;2.80;;;1.00;;
24421;SDS011;12600;53.326;-6.298;2024-03-25T02:47:36;1.75;;;0.95;;
24421;SDS011;12600;53.326;-6.298;2024-03-25T02:50:25;1.83;;;0.90;;
24421;SDS011;12600;53.326;-6.298;2024-03-25T02:53:12;2.00;;;1.00;;
24421;SDS011;12600;53.326;-6.298;2024-03-25T02:56:00;1.88;;;0.85;;
24421;SDS011;12600;53.326;-6.298;2024-03-25T02:58:48;2.25;;;0.80;;
24421;SDS011;12600;53.326;-6.298;2024-03-25T03:01:37;1.33;;;0.68;;
24421;SDS011;12600;53.326;-6.298;2024-03-25T03:04:25;1.83;;;0.90;;
24421;SDS011;12600;53.326;-6.298;2024-03-25T03:07:13;2.97;;;1.50;;
24421;SDS011;12600;53.326;-6.298;2024-03-25T03:10:01;2.35;;;0.80;;
24421;SDS011;12600;53.326;-6.298;2024-03-25T03:12:49;3.05;;;0.90;;
24421;SDS011;12600;53.326;-6.298;2024-03-25T03:15:36;0.98;;;0.50;;
24421;SDS011;12600;53.326;-6.298;2024-03-25T03:18:26;1.10;;;0.50;;
24421;SDS011;12600;53.326;-6.298;2024-03-25T03:21:14;1.92;;;1.02;;
24421;SDS011;12600;53.326;-6.298;2024-03-25T03:24:02;0.75;;;0.47;;
24421;SDS011;12600;53.326;-6.298;2024-03-25T03:26:50;1.23;;;0.60;;
24421;SDS011;12600;53.326;-6.298;2024-03-25T03:29:39;2.40;;;1.30;;
24421;SDS011;12600;53.326;-6.298;2024-03-25T03:32:26;1.30;;;0.70;;
24421;SDS011;12600;53.326;-6.298;2024-03-25T03:35:16;1.05;;;0.50;;
24421;SDS011;12600;53.326;-6.298;2024-03-25T03:38:03;1.00;;;0.40;;
24421;SDS011;12600;53.326;-6.298;2024-03-25T03:40:58;0.65;;;0.43;;
24421;SDS011;12600;53.326;-6.298;2024-03-25T03:43:46;1.58;;;0.50;;
24421;SDS011;12600;53.326;-6.298;2024-03-25T03:46:35;0.47;;;0.40;;
24421;SDS011;12600;53.326;-6.298;2024-03-25T03:49:22;0.52;;;0.38;;
24421;SDS011;12600;53.326;-6.298;2024-03-25T03:52:12;1.83;;;0.40;;
24421;SDS011;12600;53.326;-6.298;2024-03-25T03:54:59;1.20;;;0.50;;
24421;SDS011;12600;53.326;-6.298;2024-03-25T03:57:47;1.52;;;0.55;;
24421;SDS011;12600;53.326;-6.298;2024-03-25T04:00:35;0.70;;;0.50;;
24421;SDS011;12600;53.326;-6.298;2024-03-25T04:03:24;3.25;;;0.88;;
24421;SDS011;12600;53.326;-6.298;2024-03-25T04:06:12;1.00;;;0.50;;
24421;SDS011;12600;53.326;-6.298;2024-03-25T04:09:02;1.00;;;0.63;;
24421;SDS011;12600;53.326;-6.298;2024-03-25T04:11:50;1.20;;;0.70;;
24421;SDS011;12600;53.326;-6.298;2024-03-25T04:14:38;1.45;;;0.70;;
24421;SDS011;12600;53.326;-6.298;2024-03-25T04:17:26;1.33;;;0.60;;
24421;SDS011;12600;53.326;-6.298;2024-03-25T04:20:13;3.25;;;0.65;;
24421;SDS011;12600;53.326;-6.298;2024-03-25T04:23:02;0.95;;;0.50;;
24421;SDS011;12600;53.326;-6.298;2024-03-25T04:25:51;2.15;;;0.70;;
24421;SDS011;12600;53.326;-6.298;2024-03-25T04:28:40;2.20;;;0.65;;
24421;SDS011;12600;53.326;-6.298;2024-03-25T04:31:27;1.40;;;0.70;;
24421;SDS011;12600;53.326;-6.298;2024-03-25T04:34:15;0.80;;;0.57;;
24421;SDS011;12600;53.326;-6.298;2024-03-25T04:37:03;0.80;;;0.52;;
24421;SDS011;12600;53.326;-6.298;2024-03-25T04:39:50;1.50;;;0.60;;
24421;SDS011;12600;53.326;-6.298;2024-03-25T04:42:39;0.63;;;0.50;;
24421;SDS011;12600;53.326;-6.298;2024-03-25T04:45:27;1.15;;;0.50;;
24421;SDS011;12600;53.326;-6.298;2024-03-25T04:48:14;1.83;;;0.57;;
24421;SDS011;12600;53.326;-6.298;2024-03-25T04:51:02;1.65;;;0.50;;
24421;SDS011;12600;53.326;-6.298;2024-03-25T04:53:49;0.90;;;0.40;;
24421;SDS011;12600;53.326;-6.298;2024-03-25T04:56:37;2.03;;;0.60;;
24421;SDS011;12600;53.326;-6.298;2024-03-25T04:59:27;0.88;;;0.57;;
24421;SDS011;12600;53.326;-6.298;2024-03-25T05:02:14;1.50;;;0.70;;
24421;SDS011;12600;53.326;-6.298;2024-03-25T05:05:02;2.75;;;0.60;;
24421;SDS011;12600;53.326;-6.298;2024-03-25T05:07:50;2.75;;;0.60;;
24421;SDS011;12600;53.326;-6.298;2024-03-25T05:10:37;1.38;;;0.75;;
24421;SDS011;12600;53.326;-6.298;2024-03-25T05:13:24;5.50;;;1.10;;
24421;SDS011;12600;53.326;-6.298;2024-03-25T05:16:13;2.92;;;0.95;;
24421;SDS011;12600;53.326;-6.298;2024-03-25T05:19:00;1.60;;;0.90;;
24421;SDS011;12600;53.326;-6.298;2024-03-25T05:21:48;2.45;;;0.60;;
24421;SDS011;12600;53.326;-6.298;2024-03-25T05:24:35;2.03;;;0.65;;
24421;SDS011;12600;53.326;-6.298;2024-03-25T05:27:23;4.47;;;0.90;;
24421;SDS011;12600;53.326;-6.298;2024-03-25T05:30:10;4.28;;;1.00;;
24421;SDS011;12600;53.326;-6.298;2024-03-25T05:33:00;3.08;;;0.77;;
24421;SDS011;12600;53.326;-6.298;2024-03-25T05:35:47;6.43;;;0.90;;
24421;SDS011;12600;53.326;-6.298;2024-03-25T05:38:34;3.72;;;1.00;;
24421;SDS011;12600;53.326;-6.298;2024-03-25T05:41:22;8.55;;;1.02;;
24421;SDS011;12600;53.326;-6.298;2024-03-25T05:44:09;4.90;;;1.00;;
24421;SDS011;12600;53.326;-6.298;2024-03-25T05:46:56;6.93;;;1.50;;
24421;SDS011;12600;53.326;-6.298;2024-03-25T05:49:47;7.03;;;1.30;;
24421;SDS011;12600;53.326;-6.298;2024-03-25T05:52:34;6.25;;;1.35;;
24421;SDS011;12600;53.326;-6.298;2024-03-25T05:55:22;9.02;;;1.98;;
24421;SDS011;12600;53.326;-6.298;2024-03-25T05:58:09;7.32;;;1.10;;
24421;SDS011;12600;53.326;-6.298;2024-03-25T06:00:56;7.68;;;1.60;;
24421;SDS011;12600;53.326;-6.298;2024-03-25T06:03:44;9.95;;;1.65;;
24421;SDS011;12600;53.326;-6.298;2024-03-25T06:06:35;8.43;;;1.30;;
24421;SDS011;12600;53.326;-6.298;2024-03-25T06:09:22;7.15;;;1.27;;
24421;SDS011;12600;53.326;-6.298;2024-03-25T06:12:09;5.18;;;1.20;;
24421;SDS011;12600;53.326;-6.298;2024-03-25T06:14:57;5.15;;;1.00;;
24421;SDS011;12600;53.326;-6.298;2024-03-25T06:17:44;8.45;;;1.40;;
24421;SDS011;12600;53.326;-6.298;2024-03-25T06:20:33;8.88;;;1.30;;
24421;SDS011;12600;53.326;-6.298;2024-03-25T06:23:26;6.53;;;1.42;;
24421;SDS011;12600;53.326;-6.298;2024-03-25T06:26:15;7.15;;;1.30;;
24421;SDS011;12600;53.326;-6.298;2024-03-25T06:29:02;6.95;;;1.40;;
24421;SDS011;12600;53.326;-6.298;2024-03-25T06:31:49;6.30;;;1.20;;
24421;SDS011;12600;53.326;-6.298;2024-03-25T06:34:55;8.82;;;1.58;;
24421;SDS011;12600;53.326;-6.298;2024-03-25T06:37:42;9.98;;;1.38;;
24421;SDS011;12600;53.326;-6.298;2024-03-25T06:40:31;8.43;;;1.40;;
24421;SDS011;12600;53.326;-6.298;2024-03-25T06:43:18;5.78;;;1.45;;
24421;SDS011;12600;53.326;-6.298;2024-03-25T06:46:06;8.02;;;1.33;;
24421;SDS011;12600;53.326;-6.298;2024-03-25T06:48:53;8.48;;;1.52;;
24421;SDS011;12600;53.326;-6.298;2024-03-25T06:51:40;10.10;;;1.70;;
24421;SDS011;12600;53.326;-6.298;2024-03-25T06:54:29;8.65;;;1.30;;
24421;SDS011;12600;53.326;-6.298;2024-03-25T06:57:18;6.55;;;1.27;;
24421;SDS011;12600;53.326;-6.298;2024-03-25T07:00:06;5.95;;;1.20;;
24421;SDS011;12600;53.326;-6.298;2024-03-25T07:02:55;9.05;;;1.25;;
24421;SDS011;12600;53.326;-6.298;2024-03-25T07:05:44;8.32;;;1.60;;
24421;SDS011;12600;53.326;-6.298;2024-03-25T07:08:32;6.32;;;1.50;;
24421;SDS011;12600;53.326;-6.298;2024-03-25T07:11:19;6.10;;;1.67;;
24421;SDS011;12600;53.326;-6.298;2024-03-25T07:14:08;10.75;;;1.55;;
24421;SDS011;12600;53.326;-6.298;2024-03-25T07:16:55;8.02;;;1.60;;
24421;SDS011;12600;53.326;-6.298;2024-03-25T07:19:43;7.30;;;1.60;;
24421;SDS011;12600;53.326;-6.298;2024-03-25T07:22:31;12.38;;;1.40;;
24421;SDS011;12600;53.326;-6.298;2024-03-25T07:25:18;8.23;;;1.80;;
24421;SDS011;12600;53.326;-6.298;2024-03-25T07:28:05;8.55;;;1.50;;
24421;SDS011;12600;53.326;-6.298;2024-03-25T07:30:54;6.55;;;1.45;;
24421;SDS011;12600;53.326;-6.298;2024-03-25T07:33:42;10.07;;;1.63;;
24421;SDS011;12600;53.326;-6.298;2024-03-25T07:36:29;6.40;;;1.65;;
24421;SDS011;12600;53.326;-6.298;2024-03-25T07:39:17;3.60;;;1.35;;
24421;SDS011;12600;53.326;-6.298;2024-03-25T07:42:04;5.28;;;1.50;;
24421;SDS011;12600;53.326;-6.298;2024-03-25T07:44:53;9.82;;;1.85;;
24421;SDS011;12600;53.326;-6.298;2024-03-25T07:47:42;8.98;;;1.50;;
24421;SDS011;12600;53.326;-6.298;2024-03-25T07:50:31;5.75;;;1.52;;
24421;SDS011;12600;53.326;-6.298;2024-03-25T07:53:18;9.77;;;1.80;;
24421;SDS011;12600;53.326;-6.298;2024-03-25T07:56:06;8.60;;;1.95;;
24421;SDS011;12600;53.326;-6.298;2024-03-25T07:58:54;9.38;;;2.20;;
24421;SDS011;12600;53.326;-6.298;2024-03-25T08:01:41;9.23;;;2.00;;
24421;SDS011;12600;53.326;-6.298;2024-03-25T08:04:32;10.80;;;3.25;;
24421;SDS011;12600;53.326;-6.298;2024-03-25T08:07:19;7.90;;;1.65;;
24421;SDS011;12600;53.326;-6.298;2024-03-25T08:10:07;5.15;;;1.50;;
24421;SDS011;12600;53.326;-6.298;2024-03-25T08:12:55;9.07;;;1.58;;
24421;SDS011;12600;53.326;-6.298;2024-03-25T08:15:42;10.02;;;1.80;;
24421;SDS011;12600;53.326;-6.298;2024-03-25T08:18:30;8.25;;;2.22;;
24421;SDS011;12600;53.326;-6.298;2024-03-25T08:21:18;10.05;;;2.00;;
24421;SDS011;12600;53.326;-6.298;2024-03-25T08:24:06;14.73;;;2.67;;
24421;SDS011;12600;53.326;-6.298;2024-03-25T08:26:53;11.93;;;2.20;;
24421;SDS011;12600;53.326;-6.298;2024-03-25T08:29:41;11.60;;;2.38;;
24421;SDS011;12600;53.326;-6.298;2024-03-25T08:32:29;8.70;;;2.42;;
24421;SDS011;12600;53.326;-6.298;2024-03-25T08:35:16;10.93;;;2.70;;
24421;SDS011;12600;53.326;-6.298;2024-03-25T08:38:05;11.23;;;2.00;;
24421;SDS011;12600;53.326;-6.298;2024-03-25T08:40:52;8.20;;;1.80;;
24421;SDS011;12600;53.326;-6.298;2024-03-25T08:43:40;9.90;;;2.03;;
24421;SDS011;12600;53.326;-6.298;2024-03-25T08:46:27;8.95;;;1.60;;
24421;SDS011;12600;53.326;-6.298;2024-03-25T08:49:15;7.20;;;2.40;;
24421;SDS011;12600;53.326;-6.298;2024-03-25T08:52:02;9.50;;;1.17;;
24421;SDS011;12600;53.326;-6.298;2024-03-25T08:54:51;11.60;;;1.92;;
24421;SDS011;12600;53.326;-6.298;2024-03-25T08:57:39;19.65;;;7.43;;
24421;SDS011;12600;53.326;-6.298;2024-03-25T09:00:26;7.80;;;1.63;;
24421;SDS011;12600;53.326;-6.298;2024-03-25T09:03:13;9.25;;;1.70;;
24421;SDS011;12600;53.326;-6.298;2024-03-25T09:06:01;7.10;;;1.50;;
24421;SDS011;12600;53.326;-6.298;2024-03-25T09:08:49;11.85;;;1.35;;
24421;SDS011;12600;53.326;-6.298;2024-03-25T09:11:56;9.95;;;1.60;;
24421;SDS011;12600;53.326;-6.298;2024-03-25T09:14:44;8.73;;;1.60;;
24421;SDS011;12600;53.326;-6.298;2024-03-25T09:17:31;6.57;;;1.65;;
24421;SDS011;12600;53.326;-6.298;2024-03-25T09:20:18;13.60;;;1.80;;
24421;SDS011;12600;53.326;-6.298;2024-03-25T09:23:06;11.82;;;1.88;;
24421;SDS011;12600;53.326;-6.298;2024-03-25T09:25:54;10.35;;;2.03;;
24421;SDS011;12600;53.326;-6.298;2024-03-25T09:28:42;15.90;;;2.13;;
24421;SDS011;12600;53.326;-6.298;2024-03-25T09:31:30;15.13;;;3.45;;
24421;SDS011;12600;53.326;-6.298;2024-03-25T09:34:17;20.80;;;3.75;;
24421;SDS011;12600;53.326;-6.298;2024-03-25T09:37:04;12.98;;;2.20;;
24421;SDS011;12600;53.326;-6.298;2024-03-25T09:39:52;10.65;;;2.33;;
24421;SDS011;12600;53.326;-6.298;2024-03-25T09:42:41;15.30;;;2.10;;
24421;SDS011;12600;53.326;-6.298;2024-03-25T09:45:39;14.18;;;2.60;;
24421;SDS011;12600;53.326;-6.298;2024-03-25T09:48:28;13.77;;;2.40;;
24421;SDS011;12600;53.326;-6.298;2024-03-25T09:51:17;11.25;;;2.22;;
24421;SDS011;12600;53.326;-6.298;2024-03-25T09:54:05;8.00;;;1.88;;
24421;SDS011;12600;53.326;-6.298;2024-03-25T09:56:52;13.68;;;2.15;;
24421;SDS011;12600;53.326;-6.298;2024-03-25T09:59:41;11.07;;;1.70;;
24421;SDS011;12600;53.326;-6.298;2024-03-25T10:02:29;14.13;;;3.47;;
24421;SDS011;12600;53.326;-6.298;2024-03-25T10:05:18;16.23;;;2.22;;
24421;SDS011;12600;53.326;-6.298;2024-03-25T10:08:05;20.88;;;3.70;;
24421;SDS011;12600;53.326;-6.298;2024-03-25T10:10:54;12.90;;;1.95;;
24421;SDS011;12600;53.326;-6.298;2024-03-25T10:13:41;19.20;;;2.33;;
24421;SDS011;12600;53.326;-6.298;2024-03-25T10:16:28;8.80;;;2.00;;
24421;SDS011;12600;53.326;-6.298;2024-03-25T10:19:18;9.00;;;2.10;;
24421;SDS011;12600;53.326;-6.298;2024-03-25T10:22:06;7.15;;;1.50;;
24421;SDS011;12600;53.326;-6.298;2024-03-25T10:24:55;6.50;;;2.05;;
24421;SDS011;12600;53.326;-6.298;2024-03-25T10:27:52;7.47;;;1.48;;
24421;SDS011;12600;53.326;-6.298;2024-03-25T10:30:40;4.63;;;1.17;;
24421;SDS011;12600;53.326;-6.298;2024-03-25T10:33:28;6.80;;;1.60;;
24421;SDS011;12600;53.326;-6.298;2024-03-25T10:36:16;6.00;;;1.27;;
24421;SDS011;12600;53.326;-6.298;2024-03-25T10:39:06;7.20;;;1.40;;
24421;SDS011;12600;53.326;-6.298;2024-03-25T10:41:55;7.97;;;1.40;;
24421;SDS011;12600;53.326;-6.298;2024-03-25T10:44:45;3.47;;;1.10;;
24421;SDS011;12600;53.326;-6.298;2024-03-25T10:47:34;2.28;;;0.75;;
24421;SDS011;12600;53.326;-6.298;2024-03-25T10:50:28;3.97;;;0.82;;
24421;SDS011;12600;53.326;-6.298;2024-03-25T10:53:17;2.13;;;0.70;;
24421;SDS011;12600;53.326;-6.298;2024-03-25T10:56:06;3.25;;;0.85;;
24421;SDS011;12600;53.326;-6.298;2024-03-25T10:58:53;2.83;;;0.88;;
24421;SDS011;12600;53.326;-6.298;2024-03-25T11:01:42;2.13;;;0.80;;
24421;SDS011;12600;53.326;-6.298;2024-03-25T11:04:30;2.30;;;0.80;;
24421;SDS011;12600;53.326;-6.298;2024-03-25T11:07:18;1.52;;;0.68;;
24421;SDS011;12600;53.326;-6.298;2024-03-25T11:10:18;1.98;;;0.52;;
24421;SDS011;12600;53.326;-6.298;2024-03-25T11:13:16;2.53;;;0.57;;
24421;SDS011;12600;53.326;-6.298;2024-03-25T11:16:06;3.40;;;1.50;;
24421;SDS011;12600;53.326;-6.298;2024-03-25T11:18:53;2.80;;;0.77;;
24421;SDS011;12600;53.326;-6.298;2024-03-25T11:21:41;3.03;;;0.60;;
24421;SDS011;12600;53.326;-6.298;2024-03-25T11:24:29;4.25;;;0.80;;
24421;SDS011;12600;53.326;-6.298;2024-03-25T11:27:22;2.40;;;0.55;;
24421;SDS011;12600;53.326;-6.298;2024-03-25T11:30:14;4.97;;;0.90;;
24421;SDS011;12600;53.326;-6.298;2024-03-25T11:33:02;4.40;;;0.73;;
24421;SDS011;12600;53.326;-6.298;2024-03-25T11:35:51;3.55;;;0.50;;
24421;SDS011;12600;53.326;-6.298;2024-03-25T11:38:40;3.08;;;0.77;;
24421;SDS011;12600;53.326;-6.298;2024-03-25T11:41:28;2.85;;;0.70;;
24421;SDS011;12600;53.326;-6.298;2024-03-25T11:44:17;14.68;;;5.78;;
24421;SDS011;12600;53.326;-6.298;2024-03-25T11:47:05;2.88;;;0.75;;
24421;SDS011;12600;53.326;-6.298;2024-03-25T11:49:53;2.83;;;0.70;;
24421;SDS011;12600;53.326;-6.298;2024-03-25T11:52:41;4.38;;;1.10;;
24421;SDS011;12600;53.326;-6.298;2024-03-25T11:55:29;4.47;;;0.90;;
24421;SDS011;12600;53.326;-6.298;2024-03-25T11:58:16;3.45;;;0.75;;
24421;SDS011;12600;53.326;-6.298;2024-03-25T12:01:05;5.82;;;1.33;;
24421;SDS011;12600;53.326;-6.298;2024-03-25T12:03:53;7.28;;;1.17;;
24421;SDS011;12600;53.326;-6.298;2024-03-25T12:06:41;4.57;;;1.60;;
24421;SDS011;12600;53.326;-6.298;2024-03-25T12:09:28;5.82;;;1.33;;
24421;SDS011;12600;53.326;-6.298;2024-03-25T12:12:34;7.55;;;1.40;;
24421;SDS011;12600;53.326;-6.298;2024-03-25T12:15:21;5.57;;;1.50;;
24421;SDS011;12600;53.326;-6.298;2024-03-25T12:18:10;10.63;;;1.88;;
24421;SDS011;12600;53.326;-6.298;2024-03-25T12:21:01;16.63;;;2.10;;
24421;SDS011;12600;53.326;-6.298;2024-03-25T12:23:50;13.68;;;2.30;;
24421;SDS011;12600;53.326;-6.298;2024-03-25T12:26:38;8.18;;;1.98;;
24421;SDS011;12600;53.326;-6.298;2024-03-25T12:29:26;3.80;;;1.50;;
24421;SDS011;12600;53.326;-6.298;2024-03-25T12:32:14;9.63;;;1.60;;
24421;SDS011;12600;53.326;-6.298;2024-03-25T12:35:03;6.25;;;1.70;;
24421;SDS011;12600;53.326;-6.298;2024-03-25T12:37:53;7.60;;;1.33;;
24421;SDS011;12600;53.326;-6.298;2024-03-25T12:40:40;9.82;;;1.48;;
24421;SDS011;12600;53.326;-6.298;2024-03-25T12:43:28;6.30;;;1.40;;
24421;SDS011;12600;53.326;-6.298;2024-03-25T12:46:18;6.15;;;1.27;;
24421;SDS011;12600;53.326;-6.298;2024-03-25T12:49:05;5.15;;;1.30;;
24421;SDS011;12600;53.326;-6.298;2024-03-25T12:51:54;5.07;;;1.40;;
24421;SDS011;12600;53.326;-6.298;2024-03-25T12:54:42;6.30;;;1.42;;
24421;SDS011;12600;53.326;-6.298;2024-03-25T12:57:30;9.20;;;2.33;;
24421;SDS011;12600;53.326;-6.298;2024-03-25T13:00:17;9.18;;;1.60;;
24421;SDS011;12600;53.326;-6.298;2024-03-25T13:03:05;11.45;;;1.50;;
24421;SDS011;12600;53.326;-6.298;2024-03-25T13:05:54;8.23;;;1.88;;
24421;SDS011;12600;53.326;-6.298;2024-03-25T13:08:42;9.40;;;1.77;;
24421;SDS011;12600;53.326;-6.298;2024-03-25T13:11:30;11.73;;;1.98;;
24421;SDS011;12600;53.326;-6.298;2024-03-25T13:14:17;7.93;;;1.40;;
24421;SDS011;12600;53.326;-6.298;2024-03-25T13:17:04;12.30;;;1.88;;
24421;SDS011;12600;53.326;-6.298;2024-03-25T13:19:52;7.57;;;1.33;;
24421;SDS011;12600;53.326;-6.298;2024-03-25T13:22:39;6.20;;;1.85;;
24421;SDS011;12600;53.326;-6.298;2024-03-25T13:25:28;10.48;;;2.17;;
24421;SDS011;12600;53.326;-6.298;2024-03-25T13:28:15;4.97;;;1.83;;
24421;SDS011;12600;53.326;-6.298;2024-03-25T13:31:03;10.18;;;2.05;;
24421;SDS011;12600;53.326;-6.298;2024-03-25T13:33:50;9.75;;;2.45;;
24421;SDS011;12600;53.326;-6.298;2024-03-25T13:36:38;9.60;;;2.08;;
24421;SDS011;12600;53.326;-6.298;2024-03-25T13:39:25;5.63;;;1.95;;
24421;SDS011;12600;53.326;-6.298;2024-03-25T13:42:14;11.55;;;2.45;;
24421;SDS011;12600;53.326;-6.298;2024-03-25T13:45:01;13.10;;;2.70;;
24421;SDS011;12600;53.326;-6.298;2024-03-25T13:47:50;12.90;;;3.45;;
24421;SDS011;12600;53.326;-6.298;2024-03-25T13:50:37;11.98;;;2.70;;
24421;SDS011;12600;53.326;-6.298;2024-03-25T13:53:25;9.27;;;2.70;;
24421;SDS011;12600;53.326;-6.298;2024-03-25T13:56:12;16.00;;;3.72;;
24421;SDS011;12600;53.326;-6.298;2024-03-25T13:59:01;12.95;;;3.28;;
24421;SDS011;12600;53.326;-6.298;2024-03-25T14:01:48;15.90;;;3.22;;
24421;SDS011;12600;53.326;-6.298;2024-03-25T14:04:36;14.65;;;2.75;;
24421;SDS011;12600;53.326;-6.298;2024-03-25T14:07:23;13.30;;;3.00;;
24421;SDS011;12600;53.326;-6.298;2024-03-25T14:10:10;10.35;;;2.80;;
24421;SDS011;12600;53.326;-6.298;2024-03-25T14:12:58;17.73;;;3.13;;
24421;SDS011;12600;53.326;-6.298;2024-03-25T14:15:46;11.82;;;2.67;;
24421;SDS011;12600;53.326;-6.298;2024-03-25T14:18:36;15.27;;;3.30;;
24421;SDS011;12600;53.326;-6.298;2024-03-25T14:21:23;9.07;;;3.50;;
24421;SDS011;12600;53.326;-6.298;2024-03-25T14:24:10;14.40;;;3.80;;
24421;SDS011;12600;53.326;-6.298;2024-03-25T14:26:58;13.90;;;3.70;;
24421;SDS011;12600;53.326;-6.298;2024-03-25T14:29:45;13.43;;;3.00;;
24421;SDS011;12600;53.326;-6.298;2024-03-25T14:32:34;10.27;;;3.53;;
24421;SDS011;12600;53.326;-6.298;2024-03-25T14:35:21;12.90;;;3.30;;
24421;SDS011;12600;53.326;-6.298;2024-03-25T14:38:09;11.57;;;3.10;;
24421;SDS011;12600;53.326;-6.298;2024-03-25T14:40:56;8.73;;;2.60;;
24421;SDS011;12600;53.326;-6.298;2024-03-25T14:43:44;9.48;;;2.58;;
24421;SDS011;12600;53.326;-6.298;2024-03-25T14:46:31;14.23;;;3.30;;
24421;SDS011;12600;53.326;-6.298;2024-03-25T14:49:20;12.10;;;2.95;;
24421;SDS011;12600;53.326;-6.298;2024-03-25T14:52:07;13.40;;;3.10;;
24421;SDS011;12600;53.326;-6.298;2024-03-25T14:54:54;14.27;;;3.28;;
24421;SDS011;12600;53.326;-6.298;2024-03-25T14:57:42;15.63;;;2.90;;
24421;SDS011;12600;53.326;-6.298;2024-03-25T15:00:29;12.68;;;2.22;;
24421;SDS011;12600;53.326;-6.298;2024-03-25T15:03:16;15.00;;;2.97;;
24421;SDS011;12600;53.326;-6.298;2024-03-25T15:06:05;8.57;;;2.45;;
24421;SDS011;12600;53.326;-6.298;2024-03-25T15:08:53;15.15;;;2.72;;
24421;SDS011;12600;53.326;-6.298;2024-03-25T15:11:40;22.90;;;3.42;;
24421;SDS011;12600;53.326;-6.298;2024-03-25T15:14:27;19.30;;;3.22;;
24421;SDS011;12600;53.326;-6.298;2024-03-25T15:17:15;16.45;;;2.92;;
24421;SDS011;12600;53.326;-6.298;2024-03-25T15:20:03;11.70;;;2.22;;
24421;SDS011;12600;53.326;-6.298;2024-03-25T15:22:53;13.40;;;2.35;;
24421;SDS011;12600;53.326;-6.298;2024-03-25T15:25:40;14.85;;;2.60;;
24421;SDS011;12600;53.326;-6.298;2024-03-25T15:28:27;20.08;;;2.95;;
24421;SDS011;12600;53.326;-6.298;2024-03-25T15:31:15;12.00;;;2.45;;
24421;SDS011;12600;53.326;-6.298;2024-03-25T15:34:02;8.45;;;2.00;;
24421;SDS011;12600;53.326;-6.298;2024-03-25T15:36:49;15.90;;;2.95;;
24421;SDS011;12600;53.326;-6.298;2024-03-25T15:39:38;16.13;;;2.40;;
24421;SDS011;12600;53.326;-6.298;2024-03-25T15:42:26;17.90;;;2.42;;
24421;SDS011;12600;53.326;-6.298;2024-03-25T15:45:13;15.93;;;2.75;;
24421;SDS011;12600;53.326;-6.298;2024-03-25T15:48:01;12.38;;;2.42;;
24421;SDS011;12600;53.326;-6.298;2024-03-25T15:50:48;19.48;;;3.13;;
24421;SDS011;12600;53.326;-6.298;2024-03-25T15:53:36;16.02;;;2.60;;
24421;SDS011;12600;53.326;-6.298;2024-03-25T15:56:24;16.80;;;2.97;;
24421;SDS011;12600;53.326;-6.298;2024-03-25T15:59:12;8.50;;;2.35;;
24421;SDS011;12600;53.326;-6.298;2024-03-25T16:01:59;15.10;;;3.38;;
24421;SDS011;12600;53.326;-6.298;2024-03-25T16:04:46;11.05;;;2.45;;
24421;SDS011;12600;53.326;-6.298;2024-03-25T16:07:34;12.82;;;2.50;;
24421;SDS011;12600;53.326;-6.298;2024-03-25T16:10:22;11.00;;;2.70;;
24421;SDS011;12600;53.326;-6.298;2024-03-25T16:13:11;11.00;;;1.90;;
24421;SDS011;12600;53.326;-6.298;2024-03-25T16:16:01;13.73;;;2.55;;
24421;SDS011;12600;53.326;-6.298;2024-03-25T16:18:50;8.88;;;2.53;;
24421;SDS011;12600;53.326;-6.298;2024-03-25T16:21:37;14.63;;;2.55;;
24421;SDS011;12600;53.326;-6.298;2024-03-25T16:24:24;12.07;;;3.05;;
24421;SDS011;12600;53.326;-6.298;2024-03-25T16:27:12;8.80;;;2.28;;
24421;SDS011;12600;53.326;-6.298;2024-03-25T16:30:00;8.27;;;2.33;;
24421;SDS011;12600;53.326;-6.298;2024-03-25T16:32:49;16.65;;;2.60;;
24421;SDS011;12600;53.326;-6.298;2024-03-25T16:35:36;8.85;;;2.83;;